createdAt,value
2023-04-22T00:00:42.968Z,9.83
2023-04-22T00:03:29.301Z,9.78
2023-04-22T00:05:58.004Z,9.70
2023-04-22T00:08:27.670Z,9.68
2023-04-22T00:11:03.456Z,9.75
2023-04-22T00:13:33.160Z,9.71
2023-04-22T00:16:04.771Z,9.74
2023-04-22T00:18:37.797Z,9.77
2023-04-22T00:21:13.824Z,9.74
2023-04-22T00:23:50.586Z,9.73
2023-04-22T00:26:21.316Z,9.63
2023-04-22T00:28:51.144Z,9.63
2023-04-22T00:31:20.906Z,9.66
2023-04-22T00:34:00.760Z,9.65
2023-04-22T00:36:35.512Z,9.65
2023-04-22T00:39:06.958Z,9.55
2023-04-22T00:41:35.778Z,9.47
2023-04-22T00:44:11.221Z,9.50
2023-04-22T00:47:02.830Z,9.61
2023-04-22T00:49:39.229Z,9.51
2023-04-22T00:52:15.108Z,9.50
2023-04-22T00:54:44.709Z,9.50
2023-04-22T00:57:14.369Z,9.55
2023-04-22T00:59:44.415Z,9.45
2023-04-22T01:02:14.366Z,9.60
2023-04-22T01:04:44.832Z,9.69
2023-04-22T01:07:14.433Z,9.56
2023-04-22T01:09:43.529Z,9.53
2023-04-22T01:12:28.138Z,9.52
2023-04-22T01:14:58.338Z,9.53
2023-04-22T01:17:27.136Z,9.52
2023-04-22T01:20:11.502Z,9.47
2023-04-22T01:22:44.256Z,9.60
2023-04-22T01:25:16.098Z,9.55
2023-04-22T01:27:46.590Z,9.47
2023-04-22T01:30:19.221Z,9.48
2023-04-22T01:32:49.363Z,9.38
2023-04-22T01:35:37.265Z,9.38
2023-04-22T01:38:07.420Z,9.44
2023-04-22T01:40:37.588Z,9.43
2023-04-22T01:43:08.197Z,9.42
2023-04-22T01:45:42.901Z,9.46
2023-04-22T01:48:17.827Z,9.53
2023-04-22T01:50:47.472Z,9.56
2023-04-22T01:53:17.126Z,9.42
2023-04-22T01:55:46.993Z,9.42
2023-04-22T01:58:16.607Z,9.30
2023-04-22T02:00:45.303Z,9.39
2023-04-22T02:03:16.446Z,9.35
2023-04-22T02:05:44.966Z,9.36
2023-04-22T02:08:15.441Z,9.35
2023-04-22T02:10:46.577Z,9.28
2023-04-22T02:13:17.367Z,9.26
2023-04-22T02:15:47.260Z,9.34
2023-04-22T02:18:18.152Z,9.26
2023-04-22T02:20:48.880Z,9.32
2023-04-22T02:23:19.616Z,9.38
2023-04-22T02:25:52.185Z,9.33
2023-04-22T02:28:23.505Z,9.33
2023-04-22T02:30:53.132Z,9.39
2023-04-22T02:33:28.979Z,9.47
2023-04-22T02:36:00.703Z,9.51
2023-04-22T02:38:39.896Z,9.46
2023-04-22T02:41:09.848Z,9.39
2023-04-22T02:43:42.561Z,9.41
2023-04-22T02:46:13.725Z,9.41
2023-04-22T02:48:42.292Z,9.31
2023-04-22T02:51:18.979Z,9.37
2023-04-22T02:53:51.095Z,9.47
2023-04-22T02:56:21.589Z,9.43
2023-04-22T02:58:56.010Z,9.36
2023-04-22T03:01:25.849Z,9.35
2023-04-22T03:03:54.601Z,9.41
2023-04-22T03:06:25.430Z,9.42
2023-04-22T03:08:57.997Z,9.42
2023-04-22T03:11:35.102Z,9.38
2023-04-22T03:14:06.306Z,9.33
2023-04-22T03:16:35.379Z,9.41
2023-04-22T03:19:05.128Z,9.41
2023-04-22T03:21:34.771Z,9.50
2023-04-22T03:24:04.392Z,9.49
2023-04-22T03:26:35.466Z,9.43
2023-04-22T03:29:04.101Z,9.45
2023-04-22T03:32:05.661Z,9.48
2023-04-22T03:34:43.543Z,9.43
2023-04-22T03:37:13.197Z,9.40
2023-04-22T03:39:48.635Z,9.40
2023-04-22T03:42:19.820Z,9.44
2023-04-22T03:44:49.542Z,9.38
2023-04-22T03:47:27.232Z,9.29
2023-04-22T03:49:56.720Z,9.26
2023-04-22T03:52:28.166Z,9.26
2023-04-22T03:54:58.071Z,9.23
2023-04-22T03:57:27.977Z,9.21
2023-04-22T03:59:57.584Z,9.15
2023-04-22T04:02:28.108Z,9.16
2023-04-22T04:04:57.831Z,9.15
2023-04-22T04:07:26.841Z,9.11
2023-04-22T04:10:01.665Z,9.13
2023-04-22T04:12:31.678Z,9.18
2023-04-22T04:15:01.037Z,9.16
2023-04-22T04:17:35.642Z,9.17
2023-04-22T04:20:04.477Z,9.19
2023-04-22T04:22:35.712Z,9.23
2023-04-22T04:25:08.862Z,9.23
2023-04-22T04:27:42.340Z,9.26
2023-04-22T04:30:18.139Z,9.32
2023-04-22T04:32:46.615Z,9.28
2023-04-22T04:35:15.718Z,9.37
2023-04-22T04:37:48.278Z,9.36
2023-04-22T04:40:19.226Z,9.35
2023-04-22T04:43:02.808Z,9.23
2023-04-22T04:45:48.365Z,9.22
2023-04-22T04:48:17.752Z,9.18
2023-04-22T04:50:46.261Z,9.17
2023-04-22T04:53:14.708Z,9.17
2023-04-22T04:55:43.451Z,9.15
2023-04-22T04:58:13.480Z,9.17
2023-04-22T05:00:56.285Z,9.07
2023-04-22T05:03:31.962Z,9.03
2023-04-22T05:06:01.663Z,9.02
2023-04-22T05:08:31.374Z,9.05
2023-04-22T05:11:05.829Z,9.03
2023-04-22T05:13:38.321Z,9.04
2023-04-22T05:16:07.368Z,9.01
2023-04-22T05:18:36.106Z,9.00
2023-04-22T05:21:20.783Z,8.93
2023-04-22T05:23:57.355Z,8.98
2023-04-22T05:26:36.153Z,8.99
2023-04-22T05:29:07.110Z,8.94
2023-04-22T05:31:43.863Z,8.94
2023-04-22T05:34:37.241Z,8.95
2023-04-22T05:37:06.998Z,8.93
2023-04-22T05:39:43.920Z,8.98
2023-04-22T05:42:12.606Z,8.96
2023-04-22T05:44:51.691Z,8.94
2023-04-22T05:47:26.175Z,8.96
2023-04-22T05:50:02.106Z,9.05
2023-04-22T05:52:37.587Z,9.09
2023-04-22T05:55:08.711Z,9.10
2023-04-22T05:57:39.791Z,9.05
2023-04-22T06:00:15.665Z,9.11
2023-04-22T06:02:46.513Z,9.16
2023-04-22T06:05:22.503Z,9.16
2023-04-22T06:08:05.607Z,9.14
2023-04-22T06:10:41.417Z,9.07
2023-04-22T06:13:17.623Z,9.00
2023-04-22T06:15:47.680Z,9.03
2023-04-22T06:18:18.260Z,9.01
2023-04-22T06:20:48.742Z,9.07
2023-04-22T06:23:23.320Z,9.12
2023-04-22T06:25:52.207Z,9.12
2023-04-22T06:28:21.883Z,9.09
2023-04-22T06:30:57.898Z,9.05
2023-04-22T06:33:45.700Z,9.11
2023-04-22T06:36:18.325Z,9.11
2023-04-22T06:38:46.687Z,9.14
2023-04-22T06:41:15.549Z,9.14
2023-04-22T06:43:44.089Z,9.19
2023-04-22T06:46:15.464Z,9.23
2023-04-22T06:48:50.928Z,9.34
2023-04-22T06:51:26.660Z,9.39
2023-04-22T06:53:55.500Z,9.44
2023-04-22T06:56:25.017Z,9.50
2023-04-22T06:58:53.537Z,9.64
2023-04-22T07:01:23.747Z,9.74
2023-04-22T07:03:52.291Z,9.74
2023-04-22T07:06:23.966Z,9.85
2023-04-22T07:08:54.602Z,9.88
2023-04-22T07:11:24.275Z,9.91
2023-04-22T07:13:53.929Z,9.81
2023-04-22T07:16:25.287Z,9.72
2023-04-22T07:18:55.186Z,9.67
2023-04-22T07:21:26.650Z,9.57
2023-04-22T07:23:55.157Z,9.55
2023-04-22T07:26:26.000Z,9.57
2023-04-22T07:28:54.697Z,9.41
2023-04-22T07:31:31.777Z,9.29
2023-04-22T07:34:04.440Z,9.33
2023-04-22T07:36:34.073Z,9.28
2023-04-22T07:39:11.668Z,9.24
2023-04-22T07:41:47.992Z,9.19
2023-04-22T07:44:21.967Z,9.16
2023-04-22T07:46:52.550Z,9.09
2023-04-22T07:49:28.190Z,9.01
2023-04-22T07:51:56.772Z,9.04
2023-04-22T07:54:25.204Z,9.18
2023-04-22T07:56:53.514Z,9.10
2023-04-22T07:59:23.032Z,9.22
2023-04-22T08:01:53.675Z,9.25
2023-04-22T08:04:35.852Z,9.23
2023-04-22T08:07:17.189Z,9.20
2023-04-22T08:09:54.040Z,9.21
2023-04-22T08:12:22.620Z,9.13
2023-04-22T08:14:52.768Z,9.18
2023-04-22T08:17:23.771Z,9.08
2023-04-22T08:19:52.415Z,9.10
2023-04-22T08:22:20.907Z,9.05
2023-04-22T08:24:56.392Z,9.08
2023-04-22T08:27:32.910Z,9.03
2023-04-22T08:30:02.650Z,9.03
2023-04-22T08:32:32.863Z,9.03
2023-04-22T08:35:04.943Z,9.04
2023-04-22T08:37:36.270Z,8.91
2023-04-22T08:40:05.528Z,8.96
2023-04-22T08:42:36.714Z,9.06
2023-04-22T08:45:11.362Z,9.04
2023-04-22T08:47:44.273Z,9.14
2023-04-22T08:50:13.862Z,9.17
2023-04-22T08:52:44.022Z,9.26
2023-04-22T08:55:12.598Z,9.32
2023-04-22T08:57:42.414Z,9.19
2023-04-22T09:00:19.130Z,9.03
2023-04-22T09:03:02.666Z,9.16
2023-04-22T09:05:35.521Z,9.06
2023-04-22T09:08:05.306Z,9.04
2023-04-22T09:10:34.319Z,9.13
2023-04-22T09:13:04.820Z,9.11
2023-04-22T09:15:33.373Z,9.22
2023-04-22T09:18:04.453Z,9.28
2023-04-22T09:20:33.336Z,9.13
2023-04-22T09:23:05.520Z,9.15
2023-04-22T09:25:36.603Z,9.13
2023-04-22T09:28:05.521Z,9.17
2023-04-22T09:30:36.238Z,9.09
2023-04-22T09:33:07.738Z,9.20
2023-04-22T09:35:38.433Z,9.25
2023-04-22T09:38:09.487Z,9.29
2023-04-22T09:40:39.862Z,9.36
2023-04-22T09:43:10.841Z,9.26
2023-04-22T09:45:41.632Z,9.30
2023-04-22T09:48:14.401Z,9.24
2023-04-22T09:50:46.614Z,9.16
2023-04-22T09:53:17.778Z,9.11
2023-04-22T09:55:50.751Z,9.05
2023-04-22T09:58:21.235Z,9.07
2023-04-22T10:00:53.627Z,9.14
2023-04-22T10:03:25.253Z,9.03
2023-04-22T10:05:54.139Z,8.99
2023-04-22T10:08:22.894Z,9.06
2023-04-22T10:10:51.623Z,9.14
2023-04-22T10:13:19.969Z,9.14
2023-04-22T10:15:53.586Z,9.20
2023-04-22T10:18:27.457Z,9.15
2023-04-22T10:20:59.135Z,9.12
2023-04-22T10:23:28.307Z,9.14
2023-04-22T10:25:57.989Z,9.26
2023-04-22T10:28:37.529Z,9.21
2023-04-22T10:31:08.580Z,9.26
2023-04-22T10:33:42.040Z,9.26
2023-04-22T10:36:17.003Z,9.39
2023-04-22T10:39:19.385Z,9.59
2023-04-22T10:41:54.330Z,9.56
2023-04-22T10:44:23.835Z,9.51
2023-04-22T10:47:00.200Z,9.62
2023-04-22T10:49:32.979Z,9.14
2023-04-22T10:52:04.444Z,8.71
2023-04-22T10:55:03.358Z,8.67
2023-04-22T10:58:01.216Z,8.33
2023-04-22T11:00:53.037Z,8.01
2023-04-22T11:03:29.622Z,7.98
2023-04-22T11:06:22.599Z,8.06
2023-04-22T11:09:10.104Z,8.02
2023-04-22T11:11:39.819Z,8.00
2023-04-22T11:14:10.975Z,7.81
2023-04-22T11:16:48.611Z,7.76
2023-04-22T11:19:18.362Z,7.63
2023-04-22T11:21:50.102Z,7.57
2023-04-22T11:24:22.724Z,7.63
2023-04-22T11:26:52.350Z,7.66
2023-04-22T11:29:22.204Z,7.65
2023-04-22T11:31:52.984Z,7.83
2023-04-22T11:34:22.616Z,7.60
2023-04-22T11:36:53.211Z,7.63
2023-04-22T11:39:21.700Z,7.72
2023-04-22T11:41:57.244Z,7.66
2023-04-22T11:44:26.806Z,7.65
2023-04-22T11:46:58.698Z,7.62
2023-04-22T11:49:28.147Z,7.67
2023-04-22T11:51:58.983Z,7.57
2023-04-22T11:54:34.894Z,7.60
2023-04-22T11:57:05.419Z,7.62
2023-04-22T11:59:33.819Z,7.66
2023-04-22T12:02:06.326Z,7.54
2023-04-22T12:04:38.782Z,7.57
2023-04-22T12:07:09.150Z,7.67
2023-04-22T12:09:45.771Z,7.71
2023-04-22T12:12:20.277Z,7.79
2023-04-22T12:14:49.918Z,7.81
2023-04-22T12:17:23.847Z,7.85
2023-04-22T12:19:56.031Z,7.78
2023-04-22T12:22:33.868Z,7.80
2023-04-22T12:25:03.534Z,7.93
2023-04-22T12:27:32.194Z,8.02
2023-04-22T12:30:01.906Z,8.04
2023-04-22T12:32:30.592Z,7.88
2023-04-22T12:35:00.267Z,7.68
2023-04-22T12:37:39.376Z,7.62
2023-04-22T12:40:14.332Z,7.55
2023-04-22T12:42:59.839Z,7.46
2023-04-22T12:45:31.106Z,7.52
2023-04-22T12:48:05.758Z,7.64
2023-04-22T12:50:41.056Z,7.64
2023-04-22T12:53:13.089Z,7.64
2023-04-22T12:55:44.541Z,7.72
2023-04-22T12:58:15.565Z,7.63
2023-04-22T13:00:44.081Z,7.80
2023-04-22T13:03:23.116Z,8.01
2023-04-22T13:06:03.781Z,7.97
2023-04-22T13:08:34.990Z,8.03
2023-04-22T13:11:05.358Z,8.12
2023-04-22T13:14:11.114Z,8.05
2023-04-22T13:16:59.463Z,8.10
2023-04-22T13:19:35.899Z,8.14
2023-04-22T13:22:16.279Z,8.02
2023-04-22T13:24:46.248Z,7.98
2023-04-22T13:27:16.053Z,7.93
2023-04-22T13:29:45.026Z,7.96
2023-04-22T13:32:15.017Z,7.95
2023-04-22T13:35:03.411Z,8.01
2023-04-22T13:37:32.923Z,8.07
2023-04-22T13:40:11.093Z,8.28
2023-04-22T13:42:52.721Z,8.29
2023-04-22T13:45:23.993Z,8.25
2023-04-22T13:48:02.566Z,8.16
2023-04-22T13:50:36.397Z,8.15
2023-04-22T13:53:16.631Z,8.22
2023-04-22T13:55:48.949Z,8.32
2023-04-22T13:58:19.422Z,8.36
2023-04-22T14:00:56.350Z,8.50
2023-04-22T14:03:27.007Z,8.52
2023-04-22T14:05:56.988Z,8.56
2023-04-22T14:08:26.788Z,8.47
2023-04-22T14:10:57.384Z,8.64
2023-04-22T14:13:40.859Z,8.35
2023-04-22T14:16:22.470Z,8.33
2023-04-22T14:19:02.967Z,8.34
2023-04-22T14:21:33.813Z,8.35
2023-04-22T14:24:02.511Z,8.42
2023-04-22T14:26:41.703Z,8.55
2023-04-22T14:29:12.254Z,8.60
2023-04-22T14:31:42.388Z,8.70
2023-04-22T14:34:12.227Z,8.74
2023-04-22T14:36:47.864Z,8.78
2023-04-22T14:39:53.814Z,8.73
2023-04-22T14:42:29.380Z,8.82
2023-04-22T14:45:20.149Z,8.86
2023-04-22T14:47:55.054Z,8.91
2023-04-22T14:50:23.689Z,8.98
2023-04-22T14:52:52.399Z,8.95
2023-04-22T14:55:26.172Z,9.03
2023-04-22T14:57:58.666Z,9.12
2023-04-22T15:00:40.267Z,9.07
2023-04-22T15:03:09.305Z,9.08
2023-04-22T15:05:38.866Z,9.13
2023-04-22T15:08:13.521Z,9.19
2023-04-22T15:10:42.120Z,9.05
2023-04-22T15:13:23.977Z,8.89
2023-04-22T15:15:55.142Z,8.74
2023-04-22T15:18:23.935Z,8.75
2023-04-22T15:20:55.018Z,8.75
2023-04-22T15:23:26.780Z,8.78
2023-04-22T15:26:05.535Z,8.74
2023-04-22T15:28:36.023Z,8.76
2023-04-22T15:31:04.543Z,8.62
2023-04-22T15:33:33.502Z,8.65
2023-04-22T15:36:07.143Z,8.75
2023-04-22T15:38:40.272Z,8.77
2023-04-22T15:41:09.135Z,8.86
2023-04-22T15:43:57.091Z,8.88
2023-04-22T15:46:29.282Z,8.96
2023-04-22T15:48:59.047Z,9.01
2023-04-22T15:51:27.881Z,8.98
2023-04-22T15:53:59.126Z,9.10
2023-04-22T15:56:35.225Z,9.29
2023-04-22T15:59:05.206Z,9.36
2023-04-22T16:01:34.292Z,9.45
2023-04-22T16:04:03.289Z,9.56
2023-04-22T16:06:32.328Z,9.64
2023-04-22T16:09:00.936Z,9.64
2023-04-22T16:11:30.961Z,9.56
2023-04-22T16:13:59.499Z,9.43
2023-04-22T16:16:29.554Z,9.58
2023-04-22T16:18:58.346Z,9.64
2023-04-22T16:21:28.872Z,9.63
2023-04-22T16:23:59.130Z,9.56
2023-04-22T16:26:27.658Z,9.69
2023-04-22T16:28:56.529Z,9.68
2023-04-22T16:31:25.299Z,9.65
2023-04-22T16:33:58.860Z,9.53
2023-04-22T16:36:29.240Z,9.40
2023-04-22T16:38:57.930Z,9.31
2023-04-22T16:41:32.748Z,9.31
2023-04-22T16:44:01.130Z,9.24
2023-04-22T16:46:30.813Z,9.47
2023-04-22T16:49:01.068Z,9.59
2023-04-22T16:51:29.790Z,9.66
2023-04-22T16:54:00.388Z,10.14
2023-04-22T16:56:30.098Z,10.04
2023-04-22T16:59:00.416Z,9.66
2023-04-22T17:01:31.418Z,9.52
2023-04-22T17:04:01.810Z,9.40
2023-04-22T17:06:31.366Z,9.30
2023-04-22T17:09:01.209Z,9.34
2023-04-22T17:11:32.503Z,9.32
2023-04-22T17:14:00.971Z,9.31
2023-04-22T17:16:31.380Z,9.21
2023-04-22T17:19:02.519Z,9.09
2023-04-22T17:21:34.497Z,9.07
2023-04-22T17:24:05.189Z,9.08
2023-04-22T17:26:35.374Z,9.01
2023-04-22T17:29:05.590Z,8.99
2023-04-22T17:31:34.970Z,8.97
2023-04-22T17:34:06.093Z,8.87
2023-04-22T17:36:34.538Z,8.90
2023-04-22T17:39:03.226Z,8.93
2023-04-22T17:41:31.963Z,8.96
2023-04-22T17:44:01.432Z,8.89
2023-04-22T17:46:31.254Z,8.85
2023-04-22T17:49:00.549Z,8.80
2023-04-22T17:51:31.798Z,8.73
2023-04-22T17:54:01.464Z,8.60
2023-04-22T17:56:29.910Z,8.39
2023-04-22T17:59:01.442Z,8.11
2023-04-22T18:01:30.718Z,7.83
2023-04-22T18:04:00.582Z,7.81
2023-04-22T18:06:32.639Z,7.94
2023-04-22T18:09:01.194Z,7.79
2023-04-22T18:11:30.207Z,7.90
2023-04-22T18:13:58.631Z,7.86
2023-04-22T18:16:27.000Z,7.84
2023-04-22T18:18:55.301Z,7.85
2023-04-22T18:21:23.876Z,7.82
2023-04-22T18:23:54.088Z,7.90
2023-04-22T18:26:23.673Z,7.97
2023-04-22T18:28:52.244Z,7.98
2023-04-22T18:31:22.386Z,7.99
2023-04-22T18:33:57.205Z,7.83
2023-04-22T18:36:25.868Z,7.68
2023-04-22T18:38:56.152Z,7.62
2023-04-22T18:41:25.470Z,7.62
2023-04-22T18:43:55.087Z,7.62
2023-04-22T18:46:25.934Z,7.64
2023-04-22T18:48:54.341Z,7.67
2023-04-22T18:51:25.917Z,7.69
2023-04-22T18:53:57.013Z,7.74
2023-04-22T18:56:25.841Z,7.75
2023-04-22T18:58:55.450Z,7.74
2023-04-22T19:01:24.450Z,7.75
2023-04-22T19:03:54.328Z,7.74
2023-04-22T19:06:22.941Z,7.76
2023-04-22T19:08:53.183Z,7.76
2023-04-22T19:11:25.740Z,7.73
2023-04-22T19:13:54.301Z,7.74
2023-04-22T19:16:28.155Z,7.70
2023-04-22T19:19:01.676Z,7.73
2023-04-22T19:21:37.178Z,7.72
2023-04-22T19:24:06.081Z,7.74
2023-04-22T19:26:42.940Z,7.74
2023-04-22T19:29:16.834Z,7.74
2023-04-22T19:31:47.927Z,7.77
2023-04-22T19:34:16.559Z,7.79
2023-04-22T19:36:46.054Z,7.78
2023-04-22T19:39:15.835Z,7.75
2023-04-22T19:41:51.269Z,7.70
2023-04-22T19:44:20.280Z,7.63
2023-04-22T19:46:55.147Z,7.63
2023-04-22T19:49:26.081Z,7.60
2023-04-22T19:52:04.824Z,7.65
2023-04-22T19:54:34.800Z,7.64
2023-04-22T19:57:06.776Z,7.66
2023-04-22T19:59:36.079Z,7.63
2023-04-22T20:02:05.073Z,7.58
2023-04-22T20:04:34.173Z,7.60
2023-04-22T20:07:05.719Z,7.59
2023-04-22T20:09:38.403Z,7.61
2023-04-22T20:12:11.320Z,7.62
2023-04-22T20:14:41.193Z,7.67
2023-04-22T20:17:10.256Z,7.61
2023-04-22T20:19:39.608Z,7.61
2023-04-22T20:22:13.072Z,7.66
2023-04-22T20:24:44.104Z,7.68
2023-04-22T20:27:15.818Z,7.68
2023-04-22T20:29:45.537Z,7.69
2023-04-22T20:32:16.873Z,7.67
2023-04-22T20:34:47.058Z,7.67
2023-04-22T20:37:20.220Z,7.67
2023-04-22T20:39:50.408Z,7.68
2023-04-22T20:42:23.359Z,7.67
2023-04-22T20:44:52.364Z,7.65
2023-04-22T20:47:23.012Z,7.62
2023-04-22T20:49:59.028Z,7.59
2023-04-22T20:52:29.320Z,7.58
2023-04-22T20:54:58.890Z,7.57
2023-04-22T20:57:29.858Z,7.57
2023-04-22T20:59:58.371Z,7.56
2023-04-22T21:02:28.399Z,7.54
2023-04-22T21:04:58.950Z,7.49
2023-04-22T21:07:32.011Z,7.44
2023-04-22T21:10:01.860Z,7.36
2023-04-22T21:12:36.730Z,7.35
2023-04-22T21:15:06.693Z,7.37
2023-04-22T21:17:40.152Z,7.38
2023-04-22T21:20:12.412Z,7.38
2023-04-22T21:22:44.418Z,7.38
2023-04-22T21:25:21.748Z,7.38
2023-04-22T21:27:54.496Z,7.32
2023-04-22T21:30:23.922Z,7.36
2023-04-22T21:32:52.767Z,7.35
2023-04-22T21:35:24.075Z,7.31
2023-04-22T21:37:53.894Z,7.26
2023-04-22T21:40:22.614Z,7.30
2023-04-22T21:42:52.629Z,7.32
2023-04-22T21:45:22.254Z,7.32
2023-04-22T21:47:51.177Z,7.35
2023-04-22T21:50:23.290Z,7.33
2023-04-22T21:52:53.702Z,7.37
2023-04-22T21:55:37.623Z,7.24
2023-04-22T21:58:07.780Z,7.29
2023-04-22T22:00:42.402Z,7.27
2023-04-22T22:03:13.016Z,7.30
2023-04-22T22:05:42.031Z,7.30
2023-04-22T22:08:11.332Z,7.31
2023-04-22T22:10:39.929Z,7.30
2023-04-22T22:13:09.921Z,7.30
2023-04-22T22:15:38.758Z,7.29
2023-04-22T22:18:08.080Z,7.23
2023-04-22T22:20:38.800Z,7.23
2023-04-22T22:23:07.890Z,7.29
2023-04-22T22:25:38.579Z,7.30
2023-04-22T22:28:11.189Z,7.24
2023-04-22T22:30:39.818Z,7.23
2023-04-22T22:33:08.733Z,7.24
2023-04-22T22:35:37.312Z,7.23
2023-04-22T22:38:10.222Z,7.21
2023-04-22T22:40:38.718Z,7.17
2023-04-22T22:43:07.677Z,7.14
2023-04-22T22:45:38.935Z,7.13
2023-04-22T22:48:07.877Z,7.14
2023-04-22T22:50:36.598Z,7.12
2023-04-22T22:53:04.943Z,7.13
2023-04-22T22:55:34.525Z,7.17
2023-04-22T22:58:03.084Z,7.18
2023-04-22T23:00:31.718Z,7.18
2023-04-22T23:03:02.355Z,7.10
2023-04-22T23:05:30.739Z,7.06
2023-04-22T23:07:59.268Z,7.07
2023-04-22T23:10:27.887Z,7.05
2023-04-22T23:12:56.607Z,7.02
2023-04-22T23:15:25.173Z,7.01
2023-04-22T23:17:54.679Z,6.99
2023-04-22T23:20:25.857Z,6.98
2023-04-22T23:22:57.365Z,6.97
2023-04-22T23:25:26.874Z,6.98
2023-04-22T23:27:57.572Z,7.00
2023-04-22T23:30:26.603Z,7.06
2023-04-22T23:32:59.721Z,7.08
2023-04-22T23:35:31.320Z,7.10
2023-04-22T23:38:02.149Z,7.08
2023-04-22T23:40:32.095Z,7.06
2023-04-22T23:43:00.931Z,7.07
2023-04-22T23:45:38.031Z,7.04
2023-04-22T23:48:09.078Z,7.04
2023-04-22T23:50:40.846Z,7.01
2023-04-22T23:53:10.462Z,7.00
2023-04-22T23:55:40.133Z,7.02
2023-04-22T23:58:09.162Z,7.06
